Time;durP1;ratioP1;P1;durP2;ratioP2;P2;SDS_P1;SDS_P2;PMS_P1;PMS_P2;Temp;Humidity;BMP_temperature;BMP_pressure;BME280_temperature;BME280_humidity;BME280_pressure;Samples;Min_cycle;Max_cycle;Signal;HPM_P1;HPM_P2
2021/05/26 00:00:35;;;;;;;2.63;2.00;;;9.40;99.90;;;;;;5054440;28;20187;-83
2021/05/26 00:03:02;;;;;;;2.90;1.93;;;9.40;99.90;;;;;;5040034;28;20191;-82
2021/05/26 00:05:29;;;;;;;4.73;1.97;;;9.40;99.90;;;;;;5041050;28;20218;-82
2021/05/26 00:07:56;;;;;;;3.10;1.93;;;9.40;99.90;;;;;;5033072;28;20421;-81
2021/05/26 00:10:22;;;;;;;2.50;1.60;;;9.40;99.90;;;;;;5038820;28;20459;-81
2021/05/26 00:12:47;;;;;;;1.90;1.80;;;9.40;99.90;;;;;;5027672;28;20534;-81
2021/05/26 00:15:14;;;;;;;2.63;1.93;;;9.40;99.90;;;;;;5029509;28;20191;-80
2021/05/26 00:17:40;;;;;;;4.30;2.60;;;9.40;99.90;;;;;;5043426;28;20265;-81
2021/05/26 00:20:06;;;;;;;2.00;1.70;;;9.40;99.90;;;;;;5032409;28;20418;-82
2021/05/26 00:22:32;;;;;;;2.63;2.33;;;9.50;99.90;;;;;;5034381;28;20442;-81
2021/05/26 00:24:58;;;;;;;3.80;2.30;;;9.50;99.90;;;;;;5032274;28;20417;-81
2021/05/26 00:27:24;;;;;;;4.23;2.07;;;9.50;99.90;;;;;;5033427;28;20429;-82
2021/05/26 00:29:49;;;;;;;2.80;2.17;;;9.50;99.90;;;;;;5037423;28;20195;-81
2021/05/26 00:32:16;;;;;;;4.37;2.83;;;9.50;99.90;;;;;;5021187;28;20187;-81
2021/05/26 00:34:41;;;;;;;2.70;1.80;;;9.50;99.90;;;;;;5027801;28;20183;-81
2021/05/26 00:37:07;;;;;;;1.80;1.70;;;9.60;99.90;;;;;;5033260;28;20445;-82
2021/05/26 00:39:33;;;;;;;3.03;1.90;;;9.60;99.90;;;;;;5036426;28;20215;-82
2021/05/26 00:41:59;;;;;;;2.53;2.30;;;9.60;99.90;;;;;;5032803;28;20678;-80
2021/05/26 00:44:25;;;;;;;2.53;2.13;;;9.60;99.90;;;;;;5036532;28;20445;-81
2021/05/26 00:46:51;;;;;;;3.40;2.37;;;9.60;99.90;;;;;;5035893;28;20477;-81
2021/05/26 00:49:16;;;;;;;4.60;2.20;;;9.60;99.90;;;;;;5040191;28;20299;-81
2021/05/26 00:51:42;;;;;;;3.13;1.97;;;9.60;99.90;;;;;;5038401;28;20213;-82
2021/05/26 00:54:08;;;;;;;2.80;1.93;;;9.60;99.90;;;;;;5036536;28;20183;-82
2021/05/26 00:56:35;;;;;;;2.20;1.90;;;9.60;99.90;;;;;;5039811;28;20221;-82
2021/05/26 00:59:05;;;;;;;4.03;2.70;;;9.60;99.90;;;;;;5036661;28;20463;-82
2021/05/26 01:01:31;;;;;;;3.70;2.20;;;9.60;99.90;;;;;;5033954;28;20422;-82
2021/05/26 01:03:57;;;;;;;3.10;2.20;;;9.60;99.90;;;;;;5054971;28;20414;-81
2021/05/26 01:06:23;;;;;;;3.13;2.20;;;9.60;99.90;;;;;;5039386;28;20487;-82
2021/05/26 01:08:49;;;;;;;2.40;1.80;;;9.60;99.90;;;;;;5038964;28;20552;-82
2021/05/26 01:11:15;;;;;;;2.07;1.90;;;9.60;99.90;;;;;;5057711;28;20419;-82
2021/05/26 01:13:40;;;;;;;5.03;2.67;;;9.60;99.90;;;;;;5035893;28;20183;-82
2021/05/26 01:16:06;;;;;;;5.87;2.40;;;9.60;99.90;;;;;;5038559;28;20187;-80
2021/05/26 01:18:34;;;;;;;3.73;2.40;;;9.60;99.90;;;;;;5036764;28;20199;-81
2021/05/26 01:21:06;;;;;;;3.37;2.40;;;9.70;99.90;;;;;;5046845;28;20681;-81
2021/05/26 01:23:33;;;;;;;2.40;1.83;;;9.60;99.90;;;;;;5033630;28;20419;-82
2021/05/26 01:26:00;;;;;;;4.30;2.27;;;9.60;99.90;;;;;;5044125;28;20466;-81
2021/05/26 01:28:27;;;;;;;2.30;1.70;;;9.60;99.90;;;;;;5046359;28;20473;-82
2021/05/26 01:30:54;;;;;;;3.73;2.67;;;9.60;99.90;;;;;;5041957;28;21027;-82
2021/05/26 01:33:20;;;;;;;1.80;1.70;;;9.60;99.90;;;;;;5042163;28;21031;-83
2021/05/26 01:35:47;;;;;;;2.83;2.63;;;9.60;99.90;;;;;;5035891;28;20511;-79
2021/05/26 01:38:17;;;;;;;4.07;2.03;;;9.60;99.90;;;;;;5043002;28;20222;-83
2021/05/26 01:40:43;;;;;;;2.37;1.70;;;9.60;99.90;;;;;;5038627;28;20442;-82
2021/05/26 01:43:09;;;;;;;2.10;1.93;;;9.60;99.90;;;;;;5054405;28;20480;-82
2021/05/26 01:45:35;;;;;;;3.00;2.20;;;9.50;99.90;;;;;;5050000;28;20465;-82
2021/05/26 01:48:01;;;;;;;3.87;2.03;;;9.50;99.90;;;;;;5047834;28;20465;-83
2021/05/26 01:50:26;;;;;;;2.57;2.00;;;9.50;99.90;;;;;;5040390;28;20437;-82
2021/05/26 01:53:01;;;;;;;4.00;3.60;;;9.60;99.90;;;;;;5041909;28;20188;-81
2021/05/26 01:55:27;;;;;;;2.30;1.97;;;9.60;99.90;;;;;;5033402;28;20221;-81
2021/05/26 01:57:53;;;;;;;2.17;1.77;;;9.60;99.90;;;;;;5048568;28;20429;-81
2021/05/26 02:00:19;;;;;;;3.43;2.17;;;9.60;99.90;;;;;;5037067;28;20619;-81
2021/05/26 02:02:47;;;;;;;2.70;2.50;;;9.50;99.90;;;;;;5044632;28;20194;-80
2021/05/26 02:05:14;;;;;;;2.17;2.00;;;9.60;99.90;;;;;;5044198;28;20525;-83
2021/05/26 02:07:40;;;;;;;2.60;1.90;;;9.60;99.90;;;;;;5032082;28;20422;-81
2021/05/26 02:10:08;;;;;;;3.30;2.17;;;9.60;99.90;;;;;;5037047;28;20436;-82
2021/05/26 02:12:36;;;;;;;3.43;2.13;;;9.60;99.90;;;;;;5039708;28;20448;-82
2021/05/26 02:15:06;;;;;;;3.90;2.20;;;9.60;99.90;;;;;;5031896;28;20772;-81
2021/05/26 02:17:33;;;;;;;2.67;2.10;;;9.60;99.90;;;;;;5024465;28;20430;-81
2021/05/26 02:19:59;;;;;;;3.13;2.43;;;9.60;99.90;;;;;;5032136;28;20953;-83
2021/05/26 02:22:24;;;;;;;2.47;1.90;;;9.60;99.90;;;;;;5029830;28;20454;-83
2021/05/26 02:24:50;;;;;;;3.00;2.00;;;9.60;99.90;;;;;;5031112;28;20470;-82
2021/05/26 02:27:16;;;;;;;3.10;2.57;;;9.60;99.90;;;;;;5030525;28;20187;-79
2021/05/26 02:29:43;;;;;;;3.03;1.97;;;9.60;99.90;;;;;;5030012;28;20203;-83
2021/05/26 02:32:09;;;;;;;3.37;2.23;;;9.70;99.90;;;;;;5023922;28;20547;-82
2021/05/26 02:34:35;;;;;;;2.33;2.13;;;9.60;99.90;;;;;;5031110;28;20984;-81
2021/05/26 02:37:01;;;;;;;3.07;2.10;;;9.60;99.90;;;;;;5036354;28;20948;-81
2021/05/26 02:39:27;;;;;;;3.17;2.27;;;9.60;99.90;;;;;;5032091;28;20211;-81
2021/05/26 02:41:53;;;;;;;3.03;2.20;;;9.60;99.90;;;;;;5014646;28;20449;-80
2021/05/26 02:44:18;;;;;;;3.40;2.30;;;9.60;99.90;;;;;;5037219;28;20187;-81
2021/05/26 02:46:44;;;;;;;2.67;2.47;;;9.60;99.90;;;;;;5029982;28;20306;-80
2021/05/26 02:49:11;;;;;;;6.03;2.70;;;9.60;99.90;;;;;;5029090;28;20199;-81
2021/05/26 02:51:37;;;;;;;2.43;2.23;;;9.60;99.90;;;;;;5028917;28;20436;-81
2021/05/26 02:54:04;;;;;;;4.33;2.80;;;9.50;99.90;;;;;;5033064;28;20463;-81
2021/05/26 02:56:30;;;;;;;2.40;2.07;;;9.40;99.90;;;;;;5026107;28;20433;-81
2021/05/26 02:58:55;;;;;;;2.90;2.57;;;9.40;99.90;;;;;;5011472;28;21037;-81
2021/05/26 03:01:21;;;;;;;4.83;2.60;;;9.30;99.90;;;;;;5040626;28;20171;-81
2021/05/26 03:03:47;;;;;;;3.20;2.30;;;9.30;99.90;;;;;;5032904;28;20264;-82
2021/05/26 03:06:13;;;;;;;7.50;2.50;;;9.30;99.90;;;;;;5035536;28;20292;-81
2021/05/26 03:08:39;;;;;;;4.40;3.00;;;9.20;99.90;;;;;;5028352;28;20198;-79
2021/05/26 03:11:05;;;;;;;4.10;2.37;;;9.20;99.90;;;;;;5031744;28;20521;-81
2021/05/26 03:13:32;;;;;;;4.60;2.50;;;9.20;99.90;;;;;;5030327;28;20899;-80
2021/05/26 03:15:58;;;;;;;3.73;2.63;;;9.20;99.90;;;;;;5034900;28;20742;-80
2021/05/26 03:18:24;;;;;;;4.73;3.17;;;9.20;99.90;;;;;;5029548;28;20897;-79
2021/05/26 03:20:50;;;;;;;8.27;3.03;;;9.20;99.90;;;;;;5033970;28;20208;-82
2021/05/26 03:23:17;;;;;;;5.67;2.40;;;9.20;99.90;;;;;;5031586;28;20864;-82
2021/05/26 03:25:46;;;;;;;7.37;2.73;;;9.20;99.90;;;;;;5033687;28;20464;-79
2021/05/26 03:28:11;;;;;;;2.77;2.47;;;9.30;99.90;;;;;;5033544;28;20438;-79
2021/05/26 03:30:37;;;;;;;4.10;2.47;;;9.30;99.90;;;;;;5032544;28;20433;-80
2021/05/26 03:33:04;;;;;;;3.67;2.90;;;9.30;99.90;;;;;;5033522;28;20198;-82
2021/05/26 03:35:32;;;;;;;3.40;2.70;;;9.30;99.90;;;;;;5035323;28;20270;-81
2021/05/26 03:37:58;;;;;;;3.30;2.53;;;9.30;99.90;;;;;;5041835;28;20436;-80
2021/05/26 03:40:23;;;;;;;4.23;3.17;;;9.30;99.90;;;;;;5041632;28;20984;-84
2021/05/26 03:42:49;;;;;;;3.03;2.40;;;9.30;99.90;;;;;;5039646;28;20274;-83
2021/05/26 03:45:15;;;;;;;3.23;2.67;;;9.20;99.90;;;;;;5035995;28;20203;-82
2021/05/26 03:47:41;;;;;;;3.43;2.93;;;9.20;99.90;;;;;;5040204;28;20187;-82
2021/05/26 03:50:12;;;;;;;6.23;3.10;;;9.10;99.90;;;;;;5038749;28;20451;-83
2021/05/26 03:52:46;;;;;;;3.20;3.00;;;9.10;99.90;;;;;;5049308;28;20191;-83
2021/05/26 03:55:15;;;;;;;4.77;2.67;;;9.10;99.90;;;;;;5037492;28;20989;-82
2021/05/26 03:57:40;;;;;;;3.50;2.90;;;9.10;99.90;;;;;;5040868;28;20422;-82
2021/05/26 04:00:08;;;;;;;3.60;2.93;;;9.10;99.90;;;;;;5038110;28;20448;-81
2021/05/26 04:02:35;;;;;;;6.73;3.23;;;9.10;99.90;;;;;;5044663;28;20324;-80
2021/05/26 04:05:00;;;;;;;5.03;3.30;;;9.10;99.90;;;;;;5040647;28;20428;-80
2021/05/26 04:07:26;;;;;;;4.80;3.30;;;9.10;99.90;;;;;;5041735;28;20884;-82
2021/05/26 04:09:52;;;;;;;4.80;3.40;;;9.10;99.90;;;;;;5038618;28;20214;-83
2021/05/26 04:12:18;;;;;;;4.90;2.97;;;9.10;99.90;;;;;;5024743;28;20206;-82
2021/05/26 04:14:43;;;;;;;3.77;2.83;;;9.10;99.90;;;;;;5039342;28;20249;-81
2021/05/26 04:17:09;;;;;;;3.20;2.90;;;9.10;99.90;;;;;;5042254;28;20445;-81
2021/05/26 04:19:34;;;;;;;6.30;2.90;;;9.10;99.90;;;;;;5018471;28;20257;-81
2021/05/26 04:22:00;;;;;;;4.10;2.90;;;9.10;99.90;;;;;;5048449;28;20190;-81
2021/05/26 04:24:26;;;;;;;3.47;3.17;;;9.10;99.90;;;;;;5043967;28;20199;-83
2021/05/26 04:26:51;;;;;;;10.33;3.60;;;9.10;99.90;;;;;;5041029;28;20210;-82
2021/05/26 04:29:19;;;;;;;3.07;2.67;;;9.10;99.90;;;;;;5047364;28;20576;-83
2021/05/26 04:31:45;;;;;;;5.10;3.63;;;9.20;99.90;;;;;;5054382;28;20179;-81
2021/05/26 04:34:11;;;;;;;4.57;3.47;;;9.20;99.90;;;;;;5051478;28;20425;-82
2021/05/26 04:36:36;;;;;;;3.20;2.90;;;9.20;99.90;;;;;;5047706;28;20444;-82
2021/05/26 04:39:02;;;;;;;5.20;3.67;;;9.30;99.90;;;;;;5046523;28;20267;-81
2021/05/26 04:41:28;;;;;;;4.50;3.00;;;9.20;99.90;;;;;;5043513;28;20203;-83
2021/05/26 04:43:54;;;;;;;3.37;3.07;;;9.30;99.90;;;;;;5041704;28;20441;-80
2021/05/26 04:46:19;;;;;;;3.57;2.70;;;9.20;99.90;;;;;;5013929;28;20616;-82
2021/05/26 04:48:45;;;;;;;4.90;2.97;;;9.20;99.90;;;;;;5028635;28;20760;-81
2021/05/26 04:51:10;;;;;;;7.03;3.80;;;9.20;99.90;;;;;;5039361;28;20269;-81
2021/05/26 04:53:36;;;;;;;4.40;3.60;;;9.20;99.90;;;;;;5033018;28;20198;-82
2021/05/26 04:56:02;;;;;;;6.10;3.53;;;9.20;99.90;;;;;;5032962;28;20191;-82
2021/05/26 04:58:27;;;;;;;4.33;3.20;;;9.30;99.90;;;;;;5035138;28;20683;-85
2021/05/26 05:00:53;;;;;;;3.87;2.90;;;9.30;99.90;;;;;;5031491;28;20198;-83
2021/05/26 05:03:19;;;;;;;3.30;3.00;;;9.30;99.90;;;;;;5034146;28;20234;-78
2021/05/26 05:05:44;;;;;;;2.80;2.60;;;9.30;99.90;;;;;;5030217;28;20213;-80
2021/05/26 05:08:10;;;;;;;3.07;2.70;;;9.40;99.90;;;;;;5021075;28;20203;-82
2021/05/26 05:10:35;;;;;;;6.93;3.50;;;9.50;99.90;;;;;;5039934;28;20207;-79
2021/05/26 05:13:02;;;;;;;2.87;2.60;;;9.50;99.90;;;;;;5035727;28;20178;-82
2021/05/26 05:15:28;;;;;;;3.57;3.07;;;9.50;99.90;;;;;;5033882;28;20550;-84
2021/05/26 05:17:54;;;;;;;6.53;3.40;;;9.60;99.90;;;;;;5038368;28;20451;-78
2021/05/26 05:20:21;;;;;;;4.80;2.80;;;9.60;99.90;;;;;;5036890;28;20438;-82
2021/05/26 05:22:54;;;;;;;4.10;3.13;;;9.60;99.90;;;;;;5030515;28;20441;-82
2021/05/26 05:25:21;;;;;;;4.20;3.57;;;9.60;99.90;;;;;;5028630;28;20527;-82
2021/05/26 05:27:47;;;;;;;2.63;2.43;;;9.60;99.90;;;;;;5029440;28;20442;-84
2021/05/26 05:30:13;;;;;;;4.93;3.30;;;9.60;99.90;;;;;;5033046;28;21106;-82
2021/05/26 05:32:39;;;;;;;6.73;3.20;;;9.60;99.90;;;;;;5036301;28;20215;-82
2021/05/26 05:35:05;;;;;;;6.40;3.30;;;9.60;99.90;;;;;;5027050;28;20428;-85
2021/05/26 05:37:31;;;;;;;5.83;3.37;;;9.60;99.90;;;;;;5015736;28;20434;-82
2021/05/26 05:39:57;;;;;;;6.67;3.27;;;9.60;99.90;;;;;;5024516;28;20499;-82
2021/05/26 05:42:22;;;;;;;3.27;2.97;;;9.60;99.90;;;;;;5043329;28;20203;-82
2021/05/26 05:44:48;;;;;;;4.67;3.70;;;9.70;99.90;;;;;;5035060;28;20199;-80
2021/05/26 05:47:14;;;;;;;3.47;2.90;;;9.60;99.90;;;;;;5017600;28;20206;-82
2021/05/26 05:49:40;;;;;;;4.47;3.93;;;9.70;99.90;;;;;;5013943;28;20210;-82
2021/05/26 05:52:08;;;;;;;4.47;2.97;;;9.70;99.90;;;;;;5026042;28;20195;-82
2021/05/26 05:54:34;;;;;;;4.80;2.97;;;9.70;99.90;;;;;;5031082;28;20475;-82
2021/05/26 05:56:59;;;;;;;3.53;2.83;;;9.70;99.90;;;;;;5028881;28;20537;-83
2021/05/26 05:59:25;;;;;;;2.70;2.50;;;9.70;99.90;;;;;;5032116;28;20211;-83
2021/05/26 06:01:51;;;;;;;4.40;3.07;;;9.70;99.90;;;;;;5014365;28;20227;-82
2021/05/26 06:04:16;;;;;;;5.80;3.23;;;9.70;99.90;;;;;;5031799;28;20183;-81
2021/05/26 06:06:42;;;;;;;4.90;2.70;;;9.70;99.90;;;;;;5013532;28;20207;-80
2021/05/26 06:09:07;;;;;;;3.07;2.77;;;9.60;99.90;;;;;;5037094;28;20195;-81
2021/05/26 06:11:33;;;;;;;3.90;3.23;;;9.70;99.90;;;;;;5045952;28;20207;-81
2021/05/26 06:14:05;;;;;;;5.87;3.10;;;9.70;99.90;;;;;;5005582;28;20195;-80
2021/05/26 06:16:38;;;;;;;5.20;3.30;;;9.70;99.90;;;;;;5024151;28;20670;-82
2021/05/26 06:19:06;;;;;;;3.93;3.27;;;9.60;99.90;;;;;;5032582;28;20446;-82
2021/05/26 06:21:33;;;;;;;3.50;2.90;;;9.60;99.90;;;;;;5026359;28;20803;-79
2021/05/26 06:23:59;;;;;;;3.50;3.20;;;9.60;99.90;;;;;;5035275;28;20433;-82
2021/05/26 06:26:25;;;;;;;4.43;2.70;;;9.70;99.90;;;;;;5034408;28;20531;-80
2021/05/26 06:28:51;;;;;;;4.10;3.07;;;9.70;99.90;;;;;;5019147;28;20460;-80
2021/05/26 06:31:17;;;;;;;5.47;3.00;;;9.70;99.90;;;;;;5027702;28;20437;-81
2021/05/26 06:33:43;;;;;;;3.50;3.13;;;9.70;99.90;;;;;;5029727;28;20504;-82
2021/05/26 06:36:10;;;;;;;3.73;3.37;;;9.60;99.90;;;;;;5032691;28;20195;-81
2021/05/26 06:38:36;;;;;;;4.77;3.50;;;9.60;99.90;;;;;;5031914;28;20491;-82
2021/05/26 06:41:02;;;;;;;6.07;3.07;;;9.60;99.90;;;;;;5028420;28;20469;-82
2021/05/26 06:43:28;;;;;;;4.03;3.50;;;9.60;99.90;;;;;;5045309;28;20729;-83
2021/05/26 06:45:53;;;;;;;4.90;3.30;;;9.70;99.90;;;;;;5040071;28;21047;-82
2021/05/26 06:48:19;;;;;;;5.70;4.17;;;9.70;99.90;;;;;;5041191;28;20218;-81
2021/05/26 06:50:44;;;;;;;3.60;3.30;;;9.70;99.90;;;;;;5027198;28;20193;-83
2021/05/26 06:53:10;;;;;;;3.53;3.23;;;9.80;99.90;;;;;;5026654;28;20192;-84
2021/05/26 06:55:36;;;;;;;5.07;3.30;;;9.80;99.90;;;;;;5033688;28;20191;-83
2021/05/26 06:58:01;;;;;;;4.63;3.23;;;9.80;99.90;;;;;;5041404;28;20203;-85
2021/05/26 07:00:29;;;;;;;7.63;4.30;;;9.90;99.90;;;;;;5038839;28;20188;-84
2021/05/26 07:02:54;;;;;;;5.47;3.70;;;9.90;99.90;;;;;;5041950;28;20179;-82
2021/05/26 07:05:20;;;;;;;6.90;4.03;;;9.90;99.90;;;;;;5023116;28;20996;-84
2021/05/26 07:07:46;;;;;;;5.47;4.30;;;10.00;99.90;;;;;;5040918;28;20201;-85
2021/05/26 07:10:12;;;;;;;4.00;3.70;;;10.10;99.90;;;;;;5013626;28;20183;-85
2021/05/26 07:12:37;;;;;;;4.70;3.43;;;10.10;99.90;;;;;;5040994;28;20213;-83
2021/05/26 07:15:04;;;;;;;5.33;4.40;;;10.20;99.90;;;;;;5043903;28;20834;-83
2021/05/26 07:17:29;;;;;;;6.20;3.87;;;10.30;99.90;;;;;;5036565;28;20233;-83
2021/05/26 07:19:55;;;;;;;6.30;3.50;;;10.30;99.90;;;;;;5017957;28;20465;-83
2021/05/26 07:22:20;;;;;;;7.07;3.80;;;10.30;99.90;;;;;;5027705;28;20664;-83
2021/05/26 07:24:46;;;;;;;7.07;3.20;;;10.40;99.90;;;;;;5019726;28;20655;-84
2021/05/26 07:27:11;;;;;;;4.60;3.80;;;10.40;99.90;;;;;;5044114;28;20214;-82
2021/05/26 07:29:37;;;;;;;4.57;3.53;;;10.30;99.90;;;;;;5026145;28;20214;-83
2021/05/26 07:32:03;;;;;;;3.90;3.50;;;10.30;99.90;;;;;;5041495;28;20190;-82
2021/05/26 07:34:29;;;;;;;4.77;3.53;;;10.30;99.90;;;;;;5051001;28;20186;-83
2021/05/26 07:36:54;;;;;;;6.00;2.87;;;10.30;99.90;;;;;;5051041;28;20195;-82
2021/05/26 07:39:20;;;;;;;4.40;3.10;;;10.40;99.90;;;;;;5037932;28;20626;-84
2021/05/26 07:41:46;;;;;;;5.77;3.03;;;10.40;99.90;;;;;;5050586;28;20195;-84
2021/05/26 07:44:12;;;;;;;3.07;2.77;;;10.40;99.90;;;;;;5048020;28;20466;-84
2021/05/26 07:46:37;;;;;;;3.10;2.63;;;10.50;99.90;;;;;;5052016;28;20497;-83
2021/05/26 07:49:04;;;;;;;2.80;2.20;;;10.60;99.90;;;;;;5051228;28;20222;-83
2021/05/26 07:51:31;;;;;;;3.87;2.43;;;10.70;99.90;;;;;;5047730;28;20180;-82
2021/05/26 07:53:57;;;;;;;3.17;2.87;;;10.70;99.90;;;;;;5042944;28;20444;-81
2021/05/26 07:56:23;;;;;;;5.00;3.70;;;10.70;99.90;;;;;;5034195;28;20935;-80
2021/05/26 07:58:49;;;;;;;6.43;2.50;;;10.80;99.90;;;;;;5030860;28;20458;-80
2021/05/26 08:01:15;;;;;;;2.70;2.50;;;10.90;99.90;;;;;;5037144;28;20799;-79
2021/05/26 08:03:40;;;;;;;4.30;2.60;;;10.90;99.90;;;;;;5038632;28;20430;-81
2021/05/26 08:06:06;;;;;;;4.43;2.97;;;10.90;99.90;;;;;;5036267;28;20270;-81
2021/05/26 08:08:35;;;;;;;2.90;2.43;;;10.90;99.90;;;;;;5036438;28;20199;-82
2021/05/26 08:11:01;;;;;;;3.70;2.60;;;10.80;99.90;;;;;;5035247;28;20222;-82
2021/05/26 08:13:27;;;;;;;4.40;2.60;;;10.80;99.90;;;;;;5037063;28;20868;-83
2021/05/26 08:15:53;;;;;;;6.60;2.77;;;10.80;99.90;;;;;;5037659;28;20191;-82
2021/05/26 08:18:20;;;;;;;5.37;3.00;;;10.80;99.90;;;;;;5039799;28;20279;-83
2021/05/26 08:20:47;;;;;;;4.67;2.90;;;10.90;99.90;;;;;;5032215;28;20196;-82
2021/05/26 08:23:16;;;;;;;3.13;2.23;;;10.90;99.90;;;;;;5036390;28;20453;-80
2021/05/26 08:25:41;;;;;;;3.20;2.63;;;10.90;99.90;;;;;;5036972;28;20463;-82
2021/05/26 08:28:07;;;;;;;3.60;2.57;;;10.90;99.90;;;;;;5037404;28;20460;-82
2021/05/26 08:30:34;;;;;;;2.80;2.50;;;10.90;99.90;;;;;;5031535;28;20622;-82
2021/05/26 08:33:00;;;;;;;3.40;3.00;;;10.90;99.90;;;;;;5034062;28;20195;-83
2021/05/26 08:35:26;;;;;;;3.00;2.47;;;11.00;99.90;;;;;;5036833;28;20429;-83
2021/05/26 08:37:51;;;;;;;3.67;2.40;;;11.00;99.90;;;;;;5029560;28;20493;-81
2021/05/26 08:40:18;;;;;;;3.10;2.80;;;10.90;99.90;;;;;;5035995;28;20186;-81
2021/05/26 08:42:44;;;;;;;4.83;3.10;;;10.90;99.90;;;;;;5010634;28;20205;-81
2021/05/26 08:45:11;;;;;;;3.57;2.43;;;11.00;99.90;;;;;;5034272;28;20836;-83
2021/05/26 08:47:40;;;;;;;3.07;2.40;;;11.00;99.90;;;;;;5035982;28;21003;-82
2021/05/26 08:50:07;;;;;;;3.13;2.93;;;11.00;99.90;;;;;;5019629;28;20460;-82
2021/05/26 08:52:32;;;;;;;4.63;3.20;;;10.90;99.90;;;;;;5035332;28;20434;-82
2021/05/26 08:54:58;;;;;;;4.73;2.40;;;10.80;99.90;;;;;;5040896;28;20493;-81
2021/05/26 08:57:24;;;;;;;5.87;3.30;;;10.70;99.90;;;;;;5038912;28;20192;-82
2021/05/26 08:59:49;;;;;;;5.60;3.90;;;10.70;99.90;;;;;;5032952;28;20211;-83
2021/05/26 09:02:15;;;;;;;3.03;2.83;;;10.70;99.90;;;;;;5033906;28;20250;-83
2021/05/26 09:04:42;;;;;;;3.30;3.03;;;10.70;99.90;;;;;;5036470;28;20547;-82
2021/05/26 09:07:12;;;;;;;4.83;2.90;;;10.60;99.90;;;;;;5037702;28;20218;-81
2021/05/26 09:09:52;;;;;;;6.73;3.30;;;10.60;99.90;;;;;;5030079;28;20453;-82
2021/05/26 09:12:30;;;;;;;3.53;3.00;;;10.60;99.90;;;;;;5028389;28;20905;-83
2021/05/26 09:15:03;;;;;;;3.70;3.03;;;10.70;99.90;;;;;;5013586;28;20444;-77
2021/05/26 09:17:30;;;;;;;4.10;3.70;;;10.70;99.90;;;;;;5033865;28;20778;-82
2021/05/26 09:20:28;;;;;;;3.30;3.10;;;10.80;99.90;;;;;;5040592;28;20456;-80
2021/05/26 09:23:06;;;;;;;2.80;2.50;;;10.90;99.90;;;;;;5035067;28;20442;-80
2021/05/26 09:25:49;;;;;;;2.63;2.43;;;11.00;99.90;;;;;;5039930;28;20477;-83
2021/05/26 09:28:34;;;;;;;3.70;2.50;;;11.10;99.90;;;;;;5017838;28;20460;-82
2021/05/26 09:31:08;;;;;;;4.00;2.13;;;11.20;99.90;;;;;;5036664;28;20870;-83
2021/05/26 09:33:44;;;;;;;3.60;2.27;;;11.30;99.90;;;;;;5016762;28;20544;-83
2021/05/26 09:36:23;;;;;;;3.93;2.13;;;11.30;99.90;;;;;;5016835;28;20455;-82
2021/05/26 09:39:00;;;;;;;5.97;3.07;;;11.40;99.90;;;;;;5012404;28;20453;-82
2021/05/26 09:41:28;;;;;;;4.40;2.83;;;11.50;99.90;;;;;;5028109;28;20445;-82
2021/05/26 09:44:00;;;;;;;3.57;3.27;;;11.50;99.90;;;;;;5019705;28;20445;-81
2021/05/26 09:46:34;;;;;;;5.03;4.10;;;11.50;99.90;;;;;;5024815;28;20548;-82
2021/05/26 09:49:11;;;;;;;3.60;3.30;;;11.40;99.90;;;;;;5031550;28;20559;-81
2021/05/26 09:51:41;;;;;;;4.17;3.80;;;11.30;99.90;;;;;;5009806;28;21015;-81
2021/05/26 09:54:17;;;;;;;6.20;3.70;;;11.30;99.90;;;;;;5031116;28;20456;-81
2021/05/26 09:56:44;;;;;;;4.77;3.90;;;11.30;99.90;;;;;;5013172;28;20453;-81
2021/05/26 09:59:10;;;;;;;4.47;4.03;;;11.30;99.90;;;;;;5029946;28;20534;-80
2021/05/26 10:01:37;;;;;;;3.80;3.50;;;11.30;99.90;;;;;;5010174;28;20623;-79
2021/05/26 10:04:03;;;;;;;3.80;3.50;;;11.30;99.90;;;;;;5032568;28;20197;-82
2021/05/26 10:06:29;;;;;;;7.87;4.73;;;11.10;99.90;;;;;;5025943;28;20481;-78
2021/05/26 10:08:58;;;;;;;6.30;3.70;;;11.10;99.90;;;;;;5014231;28;20453;-78
2021/05/26 10:11:28;;;;;;;6.07;4.17;;;11.00;99.90;;;;;;5031702;28;20985;-79
2021/05/26 10:13:55;;;;;;;4.67;3.77;;;11.00;99.90;;;;;;5030254;28;20750;-77
2021/05/26 10:16:22;;;;;;;7.20;4.37;;;11.00;99.90;;;;;;5036761;28;20430;-79
2021/05/26 10:18:48;;;;;;;7.17;3.50;;;11.00;99.90;;;;;;5030720;28;20823;-81
2021/05/26 10:21:22;;;;;;;4.77;3.87;;;10.90;99.90;;;;;;5032250;28;20430;-81
2021/05/26 10:23:53;;;;;;;6.07;4.20;;;10.90;99.90;;;;;;5029531;28;20446;-81
2021/05/26 10:27:06;;;;;;;7.90;3.83;;;10.90;99.90;;;;;;5029433;28;20832;-81
2021/05/26 10:29:40;;;;;;;5.10;3.77;;;10.90;99.90;;;;;;5025745;28;20504;-80
2021/05/26 10:32:07;;;;;;;3.60;3.30;;;10.90;99.90;;;;;;5031190;28;20421;-80
2021/05/26 10:34:42;;;;;;;4.00;3.57;;;10.80;99.90;;;;;;5035901;28;20436;-79
2021/05/26 10:37:13;;;;;;;4.53;4.00;;;10.90;99.90;;;;;;5032399;28;20460;-80
2021/05/26 10:39:39;;;;;;;4.00;3.70;;;10.90;99.90;;;;;;5028496;28;20818;-79
2021/05/26 10:42:23;;;;;;;5.20;4.00;;;11.00;99.90;;;;;;5009382;28;20441;-79
2021/05/26 10:44:55;;;;;;;4.03;3.60;;;10.90;99.90;;;;;;5028945;28;20457;-80
2021/05/26 10:47:36;;;;;;;4.63;4.23;;;10.90;99.90;;;;;;5029833;28;20486;-80
2021/05/26 10:50:06;;;;;;;6.77;4.70;;;10.80;99.90;;;;;;5031999;28;20531;-80
2021/05/26 10:53:10;;;;;;;3.70;3.40;;;10.80;99.90;;;;;;5030167;28;20437;-81
2021/05/26 10:55:50;;;;;;;5.77;3.87;;;10.80;99.90;;;;;;4988638;28;20439;-81
2021/05/26 10:58:29;;;;;;;6.33;4.40;;;10.80;99.90;;;;;;4994379;28;20539;-79
2021/05/26 11:01:00;;;;;;;4.20;3.70;;;10.80;99.90;;;;;;4993452;28;21007;-80
2021/05/26 11:03:26;;;;;;;4.40;4.00;;;10.80;99.90;;;;;;4997350;28;20431;-81
2021/05/26 11:06:16;;;;;;;4.57;3.80;;;10.80;99.90;;;;;;4984402;28;20684;-81
2021/05/26 11:08:47;;;;;;;4.73;4.30;;;10.90;99.90;;;;;;4999869;28;20212;-81
2021/05/26 11:11:24;;;;;;;4.80;4.30;;;10.90;99.90;;;;;;4997471;28;21047;-81
2021/05/26 11:14:14;;;;;;;4.13;3.83;;;10.90;99.90;;;;;;5001469;28;20427;-79
2021/05/26 11:16:40;;;;;;;3.70;3.30;;;10.90;99.90;;;;;;4993278;28;20444;-81
2021/05/26 11:19:13;;;;;;;4.63;4.13;;;10.90;99.90;;;;;;4993396;28;20472;-81
2021/05/26 11:21:54;;;;;;;4.47;3.40;;;10.90;99.90;;;;;;4973683;28;20191;-79
2021/05/26 11:24:20;;;;;;;3.97;3.63;;;10.90;99.90;;;;;;4994219;28;20522;-81
2021/05/26 11:26:46;;;;;;;3.53;3.20;;;10.90;99.90;;;;;;5009010;28;21086;-81
2021/05/26 11:29:12;;;;;;;4.37;3.20;;;10.90;99.90;;;;;;5027606;28;20450;-79
2021/05/26 11:31:39;;;;;;;4.93;4.03;;;10.80;99.90;;;;;;5027225;28;20244;-79
2021/05/26 11:34:07;;;;;;;3.90;3.60;;;10.90;99.90;;;;;;5030320;28;20505;-81
2021/05/26 11:36:46;;;;;;;4.03;3.73;;;10.90;99.90;;;;;;5028719;28;20611;-78
2021/05/26 11:39:16;;;;;;;3.70;3.40;;;10.80;99.90;;;;;;5013557;28;20449;-80
2021/05/26 11:41:42;;;;;;;5.60;3.63;;;10.80;99.90;;;;;;5010173;28;20500;-81
2021/05/26 11:44:09;;;;;;;4.63;3.10;;;10.80;99.90;;;;;;5027945;28;20430;-81
2021/05/26 11:46:34;;;;;;;3.37;3.07;;;10.70;99.90;;;;;;5028919;28;20230;-82
2021/05/26 11:49:09;;;;;;;3.87;3.57;;;10.70;99.90;;;;;;5027707;28;20977;-80
2021/05/26 11:51:37;;;;;;;3.60;3.30;;;10.70;99.90;;;;;;5025694;28;20219;-81
2021/05/26 11:54:03;;;;;;;7.60;4.10;;;10.80;99.90;;;;;;5009110;28;20430;-78
2021/05/26 11:56:29;;;;;;;4.20;3.20;;;10.80;99.90;;;;;;5013133;28;20448;-80
2021/05/26 11:58:54;;;;;;;3.67;3.37;;;10.90;99.90;;;;;;5033640;28;20202;-82
2021/05/26 12:01:29;;;;;;;3.73;3.53;;;10.90;99.90;;;;;;5033088;28;20213;-81
2021/05/26 12:03:55;;;;;;;3.40;3.10;;;11.00;99.90;;;;;;5036772;28;20582;-81
2021/05/26 12:06:22;;;;;;;5.10;3.20;;;11.00;99.90;;;;;;5034340;28;20473;-81
2021/05/26 12:08:49;;;;;;;3.33;2.93;;;11.10;99.90;;;;;;5028421;28;20534;-81
2021/05/26 12:11:18;;;;;;;3.80;2.93;;;11.10;99.90;;;;;;5035364;28;20429;-83
2021/05/26 12:13:47;;;;;;;3.87;3.17;;;11.10;99.90;;;;;;5039541;28;20999;-81
2021/05/26 12:16:23;;;;;;;3.50;3.20;;;11.10;99.90;;;;;;5032743;28;20436;-81
2021/05/26 12:18:48;;;;;;;3.83;3.53;;;11.10;99.90;;;;;;5033219;28;20484;-81
2021/05/26 12:21:15;;;;;;;3.40;3.10;;;11.00;99.90;;;;;;5032766;28;20442;-80
2021/05/26 12:23:43;;;;;;;3.20;2.83;;;11.10;99.90;;;;;;5021971;28;20194;-79
2021/05/26 12:26:33;;;;;;;4.43;3.03;;;11.30;99.90;;;;;;5031880;28;20476;-80
2021/05/26 12:29:10;;;;;;;3.60;3.20;;;11.50;99.90;;;;;;5026696;28;20540;-80
2021/05/26 12:31:37;;;;;;;3.77;3.10;;;11.40;99.90;;;;;;5036014;28;20429;-81
2021/05/26 12:34:12;;;;;;;3.80;3.50;;;11.40;99.90;;;;;;5034271;28;21178;-82
2021/05/26 12:36:49;;;;;;;3.60;3.30;;;11.40;99.90;;;;;;5040236;28;20500;-83
2021/05/26 12:39:15;;;;;;;3.47;3.23;;;11.30;99.90;;;;;;5015201;28;20445;-82
2021/05/26 12:41:48;;;;;;;3.20;3.00;;;11.30;99.90;;;;;;5039269;28;20501;-82
2021/05/26 12:44:14;;;;;;;3.63;3.33;;;11.30;99.90;;;;;;5043611;28;21590;-81
2021/05/26 12:46:45;;;;;;;3.30;3.10;;;11.30;99.90;;;;;;5042245;28;20477;-82
2021/05/26 12:49:48;;;;;;;2.83;2.63;;;11.30;99.90;;;;;;5030008;28;20230;-82
2021/05/26 12:52:32;;;;;;;3.63;3.37;;;11.40;99.90;;;;;;4952108;28;20437;-80
2021/05/26 12:55:08;;;;;;;3.47;3.17;;;11.40;99.90;;;;;;4949784;28;20477;-81
2021/05/26 12:57:34;;;;;;;2.73;2.50;;;11.40;99.90;;;;;;4946082;28;20443;-81